Pagrindinis puslapis
METAR-TAF:

METAR-TAF

Oro uostai :

Doha, Kataras

platuma: 25-15-40N, ilguma: 051-33-54E, Aukštis: 11 m

Dabartinis oras

Ataskaita buvo paskelbta 22 minutes, ne 09:30 UTC
Vėjas 5 kt iš Šiaurės, svyruoja nuo Vakarų/Šiaurės Vakarų ir Rytų
Temperatūra 39°C
Drėgmė 16%
Slėgis 1004 hPa
Matomumas 10 km arba daugiau
nėra debesų žemiau 1500 m ir nėra kamuolinių lietaus debesų

METAR: OTBD 020930Z 35005KT 290V080 CAVOK 39/09 Q1004 NOSIG

Laikas: 12:52 (09:52 UTC)

Prognozė

Ataskaita buvo paskelbta 4 valandos ir 46 minutes, ne 05:06 UTC
Prognozė galioja nuo 02 metu 06 UTC su 03 metu 12 UTC
Vėjas 7 kt iš Šiaurės
Matomumas: 8000 m
Laikinai
nuo 02 metu 06 UTC su 02 metu 09 UTC
Vėjas 7 kt iš Vakarų/Šiaurės Vakarų
Laikinai
nuo 02 metu 10 UTC su 02 metu 17 UTC
Vėjas 8 kt iš Rytų/Šiaurės Rytų
Tikimybė 30% :
Laikinai
nuo 02 metu 22 UTC su 03 metu 03 UTC
Vėjas 3 kt nuo kintamojo kryptimis
Matomumas: 4500 m
migla

TAF: OTBD 020506Z 0206/0312 35007KT 8000 NSC TEMPO 0206/0209 29007KT TEMPO 0210/0217 07008KT PROB30 TEMPO 0222/0303 VRB03KT 4500 HZ

Orai ataskaitas ir orų prognozės (METAR, TAF).

turimą stotys yra geltonos ir raudonos taškus žemėlapyje.

Perkelti pele per norėdami pamatyti stoties vardą.

Tada spustelėkite, norėdami matyti oro stebėjimo ir prognozės.

Norėdami pakeisti žemėlapį: spustelėkite ant žalios mygtukų su juodo kryžiaus žemyn,; žalią mygtuką su brūkšneliu, jei norite nutolinti; arba žalių rodyklių gretimoms žemėlapius.


METAR-TAF: